Lake Ridge, Virginia
Current Conditions -  °F | °C
As of 6:58 AM on Thursday 23 Oct 2014 (Local Time) from KDAA Reporting Station
Overcast Overcast  
Wind Chill: 53°   Ceiling: 4800
Heat Index: 53°   Visibility: 10mi
Dew Point: 42°   Wind: 15mph
Humidity: 65%   Direction: 310°NW
Pressure: 29.9"   Gusts: 23mph
Location:  38.6839°N, 77.3246°W
Report Text: KDAA 231058Z AUTO 31013G20KT 10SM OVC048 12/06 A2990 RMK AO2 PK WND 31027/42 SLP128 T01190056
Loading
Personal Weather Stations






























Interactive Weather Map
Tropical Storm Tracking
New forecast layout! Learn more

10-Day Weather Forecast

Advertisements
Track Severe Weather on mobile